Time;durP1;ratioP1;P1;durP2;ratioP2;P2;SDS_P1;SDS_P2;PMS_P1;PMS_P2;Temp;Humidity;BMP_temperature;BMP_pressure;BME280_temperature;BME280_humidity;BME280_pressure;Samples;Min_cycle;Max_cycle;Signal;HPM_P1;HPM_P2
2021/12/11 00:00:44;;;;;;;4.70;2.13;;;4.50;99.90;;;;;;5034475;28;20502;-88
2021/12/11 00:03:20;;;;;;;1.27;1.17;;;4.50;99.90;;;;;;5022374;28;20509;-88
2021/12/11 00:05:50;;;;;;;1.53;1.40;;;4.50;99.90;;;;;;5019945;28;20446;-88
2021/12/11 00:08:22;;;;;;;5.93;1.87;;;4.60;99.90;;;;;;5029559;28;20904;-89
2021/12/11 00:10:54;;;;;;;1.70;1.60;;;4.60;99.90;;;;;;5022030;28;20483;-87
2021/12/11 00:13:24;;;;;;;1.67;1.53;;;4.50;99.90;;;;;;5020415;28;20496;-88
2021/12/11 00:15:52;;;;;;;3.50;1.80;;;4.60;99.90;;;;;;5019598;28;21052;-88
2021/12/11 00:18:22;;;;;;;1.70;1.60;;;4.60;99.90;;;;;;5016802;28;20455;-88
2021/12/11 00:20:54;;;;;;;1.67;1.57;;;4.60;99.90;;;;;;5017139;28;21010;-88
2021/12/11 00:23:26;;;;;;;1.70;1.60;;;4.60;99.90;;;;;;5015952;28;20454;-88
2021/12/11 00:25:54;;;;;;;1.50;1.30;;;4.60;99.90;;;;;;5022962;28;20464;-87
2021/12/11 00:28:21;;;;;;;1.83;1.70;;;4.60;99.90;;;;;;5032875;28;20489;-87
2021/12/11 00:30:48;;;;;;;1.93;1.57;;;4.70;99.90;;;;;;5025260;28;20458;-87
2021/12/11 00:33:20;;;;;;;3.83;2.50;;;4.70;99.90;;;;;;5018772;28;20448;-87
2021/12/11 00:35:48;;;;;;;4.00;2.73;;;4.70;99.90;;;;;;5017556;28;20498;-88
2021/12/11 00:38:18;;;;;;;2.30;2.00;;;4.70;99.90;;;;;;5015373;28;20446;-88
2021/12/11 00:40:49;;;;;;;2.60;2.00;;;4.80;99.90;;;;;;5016577;28;20815;-88
2021/12/11 00:43:27;;;;;;;2.10;1.90;;;4.80;99.90;;;;;;5017168;28;20817;-88
2021/12/11 00:45:55;;;;;;;2.73;2.40;;;4.80;99.90;;;;;;5014117;28;20503;-86
2021/12/11 00:48:24;;;;;;;2.50;2.30;;;4.60;99.90;;;;;;5016181;28;20492;-87
2021/12/11 00:50:56;;;;;;;2.80;2.23;;;4.60;99.90;;;;;;5013240;28;20481;-87
2021/12/11 00:53:41;;;;;;;2.37;2.17;;;4.50;99.90;;;;;;5025030;28;20444;-87
2021/12/11 00:56:11;;;;;;;3.17;2.87;;;4.50;99.90;;;;;;5042090;23;20501;-88
2021/12/11 00:58:41;;;;;;;2.87;2.50;;;4.40;99.90;;;;;;5025481;28;20530;-89
2021/12/11 01:01:12;;;;;;;2.93;2.60;;;4.40;99.90;;;;;;5029588;28;20424;-87
2021/12/11 01:03:43;;;;;;;3.40;2.77;;;4.40;99.90;;;;;;5028953;28;20477;-89
2021/12/11 01:06:13;;;;;;;3.47;2.60;;;4.30;99.90;;;;;;5017164;28;20462;-89
2021/12/11 01:08:43;;;;;;;3.40;2.90;;;4.30;99.90;;;;;;5003219;28;20512;-89
2021/12/11 01:11:15;;;;;;;3.97;2.43;;;4.30;99.90;;;;;;5000411;28;20482;-88
2021/12/11 01:13:51;;;;;;;2.87;2.57;;;4.20;99.90;;;;;;5001113;28;20466;-89
2021/12/11 01:16:20;;;;;;;2.57;2.37;;;4.20;99.90;;;;;;4999613;28;20556;-89
2021/12/11 01:18:50;;;;;;;2.50;2.23;;;4.20;99.90;;;;;;4998381;28;20480;-89
2021/12/11 01:21:32;;;;;;;4.27;2.00;;;4.20;99.90;;;;;;5004028;28;20448;-87
2021/12/11 01:24:13;;;;;;;2.60;2.00;;;4.10;99.90;;;;;;5000408;28;20488;-89
2021/12/11 01:26:46;;;;;;;2.80;2.23;;;4.10;99.90;;;;;;4993047;28;20445;-89
2021/12/11 01:29:18;;;;;;;4.50;2.00;;;4.10;99.90;;;;;;4994277;28;20554;-89
2021/12/11 01:31:46;;;;;;;2.53;1.80;;;4.10;99.90;;;;;;4994125;28;20459;-90
2021/12/11 01:34:13;;;;;;;1.83;1.73;;;4.10;99.90;;;;;;4998721;28;20441;-88
2021/12/11 01:36:41;;;;;;;2.90;2.60;;;4.10;99.90;;;;;;5017712;28;20453;-88
2021/12/11 01:39:11;;;;;;;2.37;1.90;;;4.10;99.90;;;;;;5003651;28;20464;-87
2021/12/11 01:41:38;;;;;;;2.03;1.73;;;4.00;99.90;;;;;;4998986;28;20478;-87
2021/12/11 01:44:10;;;;;;;1.57;1.40;;;4.00;99.90;;;;;;4997746;28;20458;-87
2021/12/11 01:46:39;;;;;;;1.60;1.47;;;4.00;99.90;;;;;;4996724;28;20430;-87
2021/12/11 01:49:11;;;;;;;1.70;1.60;;;4.10;99.90;;;;;;4997302;28;20489;-87
2021/12/11 01:51:41;;;;;;;1.27;1.00;;;4.00;99.90;;;;;;4997247;28;20532;-88
2021/12/11 01:54:13;;;;;;;1.33;1.00;;;4.00;99.90;;;;;;5004250;28;20457;-88
2021/12/11 01:56:43;;;;;;;2.30;1.10;;;4.00;99.90;;;;;;4997708;28;20475;-88
2021/12/11 01:59:13;;;;;;;1.53;1.27;;;4.00;99.90;;;;;;4994095;28;20450;-88
2021/12/11 02:01:46;;;;;;;1.90;1.30;;;4.00;99.90;;;;;;4996404;28;20562;-89
2021/12/11 02:04:15;;;;;;;0.83;0.83;;;4.00;99.90;;;;;;4993324;28;20454;-88
2021/12/11 02:06:44;;;;;;;1.10;1.00;;;4.00;99.90;;;;;;4996098;28;20450;-90
2021/12/11 02:09:15;;;;;;;1.57;1.27;;;3.90;99.90;;;;;;4996368;28;20998;-88
2021/12/11 02:11:44;;;;;;;1.50;1.37;;;3.90;99.90;;;;;;4997708;28;20538;-88
2021/12/11 02:14:13;;;;;;;1.40;1.07;;;3.90;99.90;;;;;;5016916;28;20462;-88
2021/12/11 02:16:46;;;;;;;1.40;1.10;;;3.90;99.90;;;;;;5018677;28;20510;-88
2021/12/11 02:19:28;;;;;;;2.37;1.50;;;4.00;99.90;;;;;;4998202;28;20439;-89
2021/12/11 02:22:13;;;;;;;1.87;1.53;;;4.00;99.90;;;;;;5017211;28;20435;-89
2021/12/11 02:24:43;;;;;;;2.10;1.30;;;3.90;99.90;;;;;;5004189;28;20558;-89
2021/12/11 02:27:15;;;;;;;1.80;1.60;;;4.00;99.90;;;;;;5002848;28;20556;-88
2021/12/11 02:29:44;;;;;;;1.40;1.30;;;4.00;99.90;;;;;;4997478;28;20435;-88
2021/12/11 02:32:18;;;;;;;1.60;1.27;;;4.00;99.90;;;;;;4992498;28;20465;-88
2021/12/11 02:34:51;;;;;;;1.20;1.10;;;3.90;99.90;;;;;;4996725;28;20474;-88
2021/12/11 02:37:24;;;;;;;1.40;1.07;;;3.90;99.90;;;;;;5005073;28;20502;-89
2021/12/11 02:39:56;;;;;;;1.53;1.43;;;3.90;99.90;;;;;;5002251;28;20537;-89
2021/12/11 02:42:28;;;;;;;1.80;1.60;;;3.90;99.90;;;;;;5004731;28;21226;-89
2021/12/11 02:44:58;;;;;;;1.50;1.40;;;3.80;99.90;;;;;;4998457;28;20484;-88
2021/12/11 02:47:30;;;;;;;3.57;1.80;;;3.80;99.90;;;;;;4996034;28;20451;-89
2021/12/11 02:50:04;;;;;;;1.53;1.43;;;3.80;99.90;;;;;;4996519;28;21050;-88
2021/12/11 02:52:38;;;;;;;2.00;1.90;;;3.80;99.90;;;;;;4997756;28;20460;-88
2021/12/11 02:55:10;;;;;;;2.80;2.60;;;3.80;99.90;;;;;;4997253;28;20481;-88
2021/12/11 02:57:46;;;;;;;2.27;2.07;;;3.80;99.90;;;;;;4995375;28;20463;-89
2021/12/11 03:00:17;;;;;;;2.27;2.07;;;3.80;99.90;;;;;;4995939;28;20469;-89
2021/12/11 03:02:49;;;;;;;3.30;2.30;;;3.80;99.90;;;;;;4995959;28;20510;-89
2021/12/11 03:05:21;;;;;;;3.33;3.13;;;3.80;99.90;;;;;;4995027;28;20479;-88
2021/12/11 03:07:53;;;;;;;3.10;2.07;;;3.80;99.90;;;;;;4995715;28;20475;-89
2021/12/11 03:10:23;;;;;;;2.87;2.67;;;3.80;99.90;;;;;;5000303;28;20475;-89
2021/12/11 03:12:52;;;;;;;2.30;2.10;;;3.70;99.90;;;;;;5002308;28;20450;-89
2021/12/11 03:15:19;;;;;;;2.80;2.60;;;3.80;99.90;;;;;;4999137;28;20573;-88
2021/12/11 03:17:46;;;;;;;3.13;2.93;;;3.80;99.90;;;;;;4995905;28;21258;-88
2021/12/11 03:20:17;;;;;;;3.30;3.00;;;3.80;99.90;;;;;;4996528;28;20484;-88
2021/12/11 03:23:37;;;;;;;2.80;2.60;;;3.80;99.90;;;;;;4996009;28;21011;-88
2021/12/11 03:26:06;;;;;;;3.50;3.17;;;3.80;99.90;;;;;;4972522;28;21006;-88
2021/12/11 03:28:33;;;;;;;3.20;2.90;;;3.80;99.90;;;;;;4995227;28;20485;-88
2021/12/11 03:31:01;;;;;;;3.27;3.07;;;3.70;99.90;;;;;;5002412;28;20461;-88
2021/12/11 03:33:31;;;;;;;3.60;3.30;;;3.80;99.90;;;;;;4999950;28;20480;-88
2021/12/11 03:36:00;;;;;;;3.37;3.07;;;3.80;99.90;;;;;;5004900;28;20477;-89
2021/12/11 03:38:28;;;;;;;3.07;2.77;;;3.80;99.90;;;;;;4999795;28;20511;-88
2021/12/11 03:40:56;;;;;;;3.37;3.07;;;3.80;99.90;;;;;;4996357;28;20444;-88
2021/12/11 03:43:26;;;;;;;2.73;2.53;;;3.80;99.90;;;;;;4995013;28;20476;-88
2021/12/11 03:45:55;;;;;;;4.70;2.57;;;3.80;99.90;;;;;;4995695;28;20489;-88
2021/12/11 03:48:27;;;;;;;2.57;2.37;;;3.80;99.90;;;;;;4995435;28;20497;-88
2021/12/11 03:50:55;;;;;;;3.10;2.90;;;3.80;99.90;;;;;;4995339;28;20442;-88
2021/12/11 03:53:22;;;;;;;2.90;2.70;;;3.80;99.90;;;;;;4995408;28;20450;-88
2021/12/11 03:55:52;;;;;;;3.13;2.93;;;3.80;99.90;;;;;;5004243;28;20464;-88
2021/12/11 03:58:20;;;;;;;2.90;2.70;;;3.90;99.90;;;;;;5016864;28;20446;-90
2021/12/11 04:00:53;;;;;;;2.93;2.73;;;3.90;99.90;;;;;;4998905;28;20812;-89
2021/12/11 04:03:25;;;;;;;3.40;3.20;;;3.90;99.90;;;;;;4994134;28;20453;-89
2021/12/11 04:05:54;;;;;;;3.40;3.20;;;3.90;99.90;;;;;;4995342;28;20482;-89
2021/12/11 04:08:28;;;;;;;4.37;3.33;;;3.90;99.90;;;;;;4995017;28;20481;-89
2021/12/11 04:10:57;;;;;;;3.27;3.00;;;3.90;99.90;;;;;;4995271;28;20458;-89
2021/12/11 04:13:24;;;;;;;3.70;3.40;;;3.90;99.90;;;;;;4997215;28;20452;-90
2021/12/11 04:15:54;;;;;;;3.70;3.40;;;3.90;99.90;;;;;;4994468;28;20482;-89
2021/12/11 04:18:22;;;;;;;3.60;3.30;;;3.90;99.90;;;;;;4994505;28;20934;-90
2021/12/11 04:20:51;;;;;;;3.63;3.33;;;3.80;99.90;;;;;;5004191;28;20449;-90
2021/12/11 04:23:19;;;;;;;4.43;4.10;;;3.80;99.90;;;;;;5011091;28;20544;-90
2021/12/11 04:25:50;;;;;;;4.60;4.30;;;3.80;99.90;;;;;;5009598;28;20500;-89
2021/12/11 04:28:18;;;;;;;5.20;4.80;;;3.80;99.90;;;;;;5011832;28;20485;-90
2021/12/11 04:30:47;;;;;;;4.57;4.27;;;3.80;99.90;;;;;;5018466;28;20434;-89
2021/12/11 04:33:16;;;;;;;5.30;4.90;;;3.80;99.90;;;;;;5010266;28;20521;-90
2021/12/11 04:35:43;;;;;;;5.40;4.90;;;3.90;99.90;;;;;;5018013;28;20486;-90
2021/12/11 04:38:12;;;;;;;5.20;4.80;;;3.90;99.90;;;;;;5010501;28;20458;-89
2021/12/11 04:40:44;;;;;;;5.80;5.37;;;3.90;99.90;;;;;;5003726;28;20462;-89
2021/12/11 04:43:15;;;;;;;5.77;5.37;;;3.90;99.90;;;;;;4997965;28;20459;-89
2021/12/11 04:45:46;;;;;;;7.10;6.50;;;3.90;99.90;;;;;;4996714;28;20467;-89
2021/12/11 04:48:22;;;;;;;6.00;5.60;;;3.90;99.90;;;;;;4996598;28;20558;-89
2021/12/11 04:50:55;;;;;;;6.17;5.73;;;3.90;99.90;;;;;;5003731;28;20693;-89
2021/12/11 04:53:41;;;;;;;6.23;5.73;;;3.90;99.90;;;;;;5001051;28;20816;-89
2021/12/11 04:56:32;;;;;;;6.37;5.77;;;3.80;99.90;;;;;;5013317;28;20749;-90
2021/12/11 04:59:21;;;;;;;5.80;5.30;;;3.80;99.90;;;;;;4994503;28;20500;-89
2021/12/11 05:01:58;;;;;;;6.53;6.03;;;3.90;99.90;;;;;;4999308;28;20522;-90
2021/12/11 05:04:45;;;;;;;6.77;6.27;;;3.90;99.90;;;;;;4996637;28;20453;-90
2021/12/11 05:07:25;;;;;;;7.40;6.73;;;3.80;99.90;;;;;;4998377;28;20448;-89
2021/12/11 05:09:58;;;;;;;7.53;7.00;;;3.80;99.90;;;;;;5010570;28;20479;-90
2021/12/11 05:12:35;;;;;;;8.53;7.73;;;3.80;99.90;;;;;;4998945;28;20451;-90
2021/12/11 05:15:07;;;;;;;8.20;7.50;;;3.80;99.90;;;;;;4998760;28;20497;-89
2021/12/11 05:17:34;;;;;;;9.53;8.80;;;3.90;99.90;;;;;;4998347;28;20457;-90
2021/12/11 05:20:04;;;;;;;7.80;7.20;;;3.90;99.90;;;;;;4998151;28;20447;-90
2021/12/11 05:22:31;;;;;;;7.47;6.77;;;3.90;99.90;;;;;;4998891;28;20446;-90
2021/12/11 05:24:58;;;;;;;7.30;6.70;;;3.90;99.90;;;;;;4998381;28;20474;-89
2021/12/11 05:27:26;;;;;;;9.07;8.17;;;3.90;99.90;;;;;;4997597;28;20441;-89
2021/12/11 05:29:53;;;;;;;7.20;6.57;;;3.90;99.90;;;;;;4994954;28;20981;-89
2021/12/11 05:32:23;;;;;;;8.20;7.50;;;3.90;99.90;;;;;;4997767;28;20791;-89
2021/12/11 05:34:52;;;;;;;7.50;6.90;;;3.90;99.90;;;;;;4997452;28;20805;-90
2021/12/11 05:37:20;;;;;;;9.13;8.43;;;3.90;99.90;;;;;;4997673;28;20458;-89
2021/12/11 05:39:48;;;;;;;7.90;7.27;;;3.90;99.90;;;;;;4982428;28;20446;-89
2021/12/11 05:42:15;;;;;;;8.43;7.70;;;3.80;99.90;;;;;;4977711;28;20452;-89
2021/12/11 05:44:42;;;;;;;8.80;8.10;;;3.80;99.90;;;;;;5001705;28;20469;-89
2021/12/11 05:47:09;;;;;;;8.67;7.97;;;3.90;99.90;;;;;;5003222;28;20474;-90
2021/12/11 05:49:37;;;;;;;8.63;7.93;;;3.90;99.90;;;;;;4996542;28;20482;-90
2021/12/11 05:52:08;;;;;;;9.50;8.70;;;3.80;99.90;;;;;;5001380;28;20482;-89
2021/12/11 05:54:38;;;;;;;8.50;7.80;;;3.90;99.90;;;;;;5006119;28;20439;-87
2021/12/11 05:57:09;;;;;;;8.80;8.00;;;3.90;99.90;;;;;;4998890;28;20943;-88
2021/12/11 05:59:38;;;;;;;9.00;8.20;;;3.80;99.90;;;;;;4997253;28;20574;-87
2021/12/11 06:02:08;;;;;;;10.20;9.30;;;3.80;99.90;;;;;;4996993;28;20803;-89
2021/12/11 06:04:37;;;;;;;10.03;8.30;;;3.90;99.90;;;;;;5010205;28;20458;-88
2021/12/11 06:07:07;;;;;;;9.20;8.40;;;3.90;99.90;;;;;;5014993;28;20445;-88
2021/12/11 06:09:36;;;;;;;9.20;8.50;;;3.90;99.90;;;;;;5014357;28;20470;-89
2021/12/11 06:12:09;;;;;;;10.03;9.13;;;3.90;99.90;;;;;;4998115;28;20451;-88
2021/12/11 06:14:38;;;;;;;10.27;9.37;;;3.90;99.90;;;;;;4998029;28;20473;-88
2021/12/11 06:17:06;;;;;;;10.00;9.20;;;3.90;99.90;;;;;;4999806;28;20459;-89
2021/12/11 06:19:34;;;;;;;10.50;9.50;;;3.90;99.90;;;;;;5001153;28;20500;-89
2021/12/11 06:22:01;;;;;;;11.80;10.80;;;4.00;99.90;;;;;;5013740;28;20511;-89
2021/12/11 06:24:29;;;;;;;10.27;9.37;;;4.00;99.90;;;;;;5020495;28;20508;-90
2021/12/11 06:26:58;;;;;;;10.10;9.20;;;4.00;99.90;;;;;;5001534;28;20452;-89
2021/12/11 06:29:26;;;;;;;11.17;10.17;;;3.90;99.90;;;;;;5000887;28;20506;-89
2021/12/11 06:31:54;;;;;;;11.97;10.83;;;3.90;99.90;;;;;;4998898;28;20455;-89
2021/12/11 06:34:21;;;;;;;10.60;9.70;;;3.90;99.90;;;;;;4998725;28;20455;-90
2021/12/11 06:36:48;;;;;;;12.83;11.53;;;3.90;99.90;;;;;;4999628;28;20458;-90
2021/12/11 06:39:18;;;;;;;12.13;11.03;;;4.00;99.90;;;;;;5001311;28;20488;-89
2021/12/11 06:41:49;;;;;;;11.70;10.70;;;3.90;99.90;;;;;;5004680;28;20455;-88
2021/12/11 06:44:18;;;;;;;11.73;10.53;;;3.90;99.90;;;;;;5004014;28;20450;-88
2021/12/11 06:46:45;;;;;;;13.30;12.00;;;3.90;99.90;;;;;;5017596;28;20433;-89
2021/12/11 06:49:12;;;;;;;11.23;10.23;;;3.90;99.90;;;;;;5018947;28;20465;-89
2021/12/11 06:51:39;;;;;;;13.40;12.10;;;3.90;99.90;;;;;;5018423;28;20516;-89
2021/12/11 06:54:09;;;;;;;14.90;13.60;;;3.90;99.90;;;;;;5016642;28;20452;-89
2021/12/11 06:56:38;;;;;;;13.97;12.67;;;4.00;99.90;;;;;;5006336;28;20457;-89
2021/12/11 06:59:05;;;;;;;14.10;12.90;;;4.00;99.90;;;;;;5005859;28;20457;-90
2021/12/11 07:01:34;;;;;;;15.27;13.30;;;4.00;99.90;;;;;;5007094;28;20449;-88
2021/12/11 07:04:02;;;;;;;16.43;14.60;;;4.00;99.90;;;;;;5005665;28;20532;-88
2021/12/11 07:06:31;;;;;;;15.27;13.52;;;4.00;99.90;;;;;;5013907;28;20531;-89
2021/12/11 07:09:00;;;;;;;14.20;12.70;;;4.00;99.90;;;;;;5013572;28;20304;-89
2021/12/11 07:11:27;;;;;;;13.60;11.80;;;4.00;99.90;;;;;;4990385;28;20453;-89
2021/12/11 07:13:54;;;;;;;13.67;12.37;;;4.00;99.90;;;;;;4987595;28;20450;-89
2021/12/11 07:16:21;;;;;;;13.27;11.87;;;4.00;99.90;;;;;;5006922;28;20488;-88
2021/12/11 07:18:50;;;;;;;12.47;11.17;;;4.00;99.90;;;;;;5005547;28;20951;-88
2021/12/11 07:21:17;;;;;;;14.43;11.87;;;4.00;99.90;;;;;;4999228;28;20818;-88
2021/12/11 07:23:48;;;;;;;12.23;11.10;;;4.10;99.90;;;;;;5001141;28;20454;-89
2021/12/11 07:26:18;;;;;;;13.20;11.90;;;4.10;99.90;;;;;;5000303;28;20480;-88
2021/12/11 07:28:49;;;;;;;13.63;12.37;;;4.10;99.90;;;;;;5000099;28;20807;-90
2021/12/11 07:31:17;;;;;;;13.70;11.80;;;4.10;99.90;;;;;;5000354;28;20795;-88
2021/12/11 07:33:44;;;;;;;14.80;13.40;;;4.10;99.90;;;;;;5002291;28;20445;-89
2021/12/11 07:36:13;;;;;;;13.90;12.63;;;4.10;99.90;;;;;;5002852;28;20485;-89
2021/12/11 07:38:40;;;;;;;14.97;12.70;;;4.10;99.90;;;;;;4990253;28;21011;-89
2021/12/11 07:41:11;;;;;;;13.87;12.50;;;4.00;99.90;;;;;;4999476;28;20975;-88
2021/12/11 07:43:40;;;;;;;15.43;13.93;;;4.10;99.90;;;;;;4999221;28;20441;-88
2021/12/11 07:46:08;;;;;;;15.10;13.63;;;4.10;99.90;;;;;;4998759;28;20952;-89
2021/12/11 07:48:35;;;;;;;15.93;14.37;;;4.10;99.90;;;;;;5012385;28;20435;-89
2021/12/11 07:51:04;;;;;;;15.17;13.60;;;4.10;99.90;;;;;;5006678;28;20897;-88
2021/12/11 07:53:32;;;;;;;16.87;13.63;;;4.10;99.90;;;;;;5007465;28;20516;-89
2021/12/11 07:55:59;;;;;;;16.77;14.97;;;4.10;99.90;;;;;;5005621;28;20489;-89
2021/12/11 07:58:29;;;;;;;15.30;13.70;;;4.10;99.90;;;;;;5005586;28;20427;-89
2021/12/11 08:00:56;;;;;;;15.00;13.50;;;4.20;99.90;;;;;;5011165;23;20502;-89
2021/12/11 08:03:23;;;;;;;14.80;13.27;;;4.20;99.90;;;;;;4993049;28;20845;-91
2021/12/11 08:05:52;;;;;;;15.50;13.90;;;4.20;99.90;;;;;;5036245;28;20505;-89
2021/12/11 08:08:19;;;;;;;20.70;14.67;;;4.20;99.90;;;;;;5023392;28;20440;-89
2021/12/11 08:10:52;;;;;;;16.60;14.80;;;4.20;99.90;;;;;;5015212;28;20503;-89
2021/12/11 08:13:19;;;;;;;16.80;15.00;;;4.30;99.90;;;;;;5008836;28;20419;-92
2021/12/11 08:15:46;;;;;;;15.20;12.47;;;4.30;99.90;;;;;;5016258;28;20449;-90
2021/12/11 08:18:15;;;;;;;17.63;15.23;;;4.30;99.90;;;;;;5005162;28;20454;-90
2021/12/11 08:20:44;;;;;;;16.83;15.07;;;4.20;99.90;;;;;;5004279;28;20464;-90
2021/12/11 08:23:13;;;;;;;17.30;15.50;;;4.20;99.90;;;;;;4986503;28;20454;-89
2021/12/11 08:25:46;;;;;;;16.73;15.03;;;4.20;99.90;;;;;;4979468;28;20455;-88
2021/12/11 08:28:17;;;;;;;16.77;14.63;;;4.30;99.90;;;;;;4995460;28;20460;-83
2021/12/11 08:30:47;;;;;;;16.73;15.13;;;4.20;99.90;;;;;;4996868;28;20494;-82
2021/12/11 08:33:14;;;;;;;18.10;14.47;;;4.10;99.90;;;;;;4996286;28;21121;-83
2021/12/11 08:35:42;;;;;;;19.57;15.30;;;4.20;99.90;;;;;;4994412;28;20970;-89
2021/12/11 08:38:09;;;;;;;22.33;16.33;;;4.20;99.90;;;;;;4994838;28;20476;-90
2021/12/11 08:40:40;;;;;;;17.90;16.10;;;4.20;99.90;;;;;;4993326;28;20463;-90
2021/12/11 08:43:18;;;;;;;17.63;15.90;;;4.20;99.90;;;;;;4978243;28;20455;-90
2021/12/11 08:45:57;;;;;;;16.40;14.50;;;4.20;99.90;;;;;;4994234;28;20945;-90
2021/12/11 08:48:25;;;;;;;25.17;20.70;;;4.20;99.90;;;;;;4989477;28;20905;-89
2021/12/11 08:50:56;;;;;;;19.53;16.20;;;4.20;99.90;;;;;;4974531;28;20487;-90
2021/12/11 08:53:22;;;;;;;18.90;16.83;;;4.20;99.90;;;;;;4976468;28;20448;-89
2021/12/11 08:55:54;;;;;;;22.67;17.57;;;4.20;99.90;;;;;;4992825;28;20448;-89
2021/12/11 08:58:25;;;;;;;20.93;16.07;;;4.30;99.90;;;;;;4973981;28;20921;-90
2021/12/11 09:00:56;;;;;;;18.00;16.20;;;4.30;99.90;;;;;;4972967;28;20485;-89
2021/12/11 09:03:29;;;;;;;20.70;17.60;;;4.40;99.90;;;;;;4975002;28;20966;-90
2021/12/11 09:06:01;;;;;;;18.73;16.73;;;4.40;99.90;;;;;;4974043;28;20457;-89
2021/12/11 09:08:31;;;;;;;20.60;17.53;;;4.40;99.90;;;;;;4989924;28;20469;-90
2021/12/11 09:11:08;;;;;;;19.43;16.90;;;4.40;99.90;;;;;;4978708;28;20992;-89
2021/12/11 09:13:42;;;;;;;19.20;16.10;;;4.40;99.90;;;;;;4974971;28;20458;-89
2021/12/11 09:16:16;;;;;;;21.90;18.10;;;4.40;99.90;;;;;;4994793;28;20481;-90
2021/12/11 09:18:47;;;;;;;19.70;16.90;;;4.50;99.90;;;;;;4989227;28;20533;-88
2021/12/11 09:21:19;;;;;;;16.20;14.50;;;4.60;99.90;;;;;;4977298;28;20479;-88
2021/12/11 09:23:52;;;;;;;16.97;15.23;;;4.60;99.90;;;;;;5005720;28;20437;-88
2021/12/11 09:26:24;;;;;;;17.23;15.50;;;4.70;99.90;;;;;;4995346;28;20464;-88
2021/12/11 09:28:58;;;;;;;19.70;14.77;;;4.70;99.90;;;;;;4993947;28;20544;-87
2021/12/11 09:31:32;;;;;;;16.20;14.03;;;4.80;99.90;;;;;;4995049;28;20495;-88
2021/12/11 09:34:02;;;;;;;16.73;15.17;;;4.80;99.90;;;;;;5004918;28;20844;-88
2021/12/11 09:36:33;;;;;;;15.53;13.77;;;4.90;99.90;;;;;;4996195;28;20452;-86
2021/12/11 09:39:08;;;;;;;14.73;13.20;;;5.00;99.90;;;;;;4978853;28;20809;-88
2021/12/11 09:41:35;;;;;;;18.80;14.63;;;5.10;99.90;;;;;;5006592;28;20465;-87
2021/12/11 09:44:08;;;;;;;22.57;15.90;;;5.10;99.90;;;;;;5000374;28;20447;-88
2021/12/11 09:46:40;;;;;;;15.50;13.90;;;5.20;99.90;;;;;;4978309;28;20452;-88
2021/12/11 09:49:09;;;;;;;15.07;13.40;;;5.30;99.90;;;;;;4998245;28;20455;-87
2021/12/11 09:51:42;;;;;;;13.93;12.60;;;5.40;99.90;;;;;;5001662;28;20482;-88
2021/12/11 09:54:12;;;;;;;12.00;10.80;;;5.60;99.90;;;;;;4983136;28;20525;-87
2021/12/11 09:56:41;;;;;;;13.43;12.10;;;5.70;99.90;;;;;;4995970;28;20447;-86
2021/12/11 09:59:12;;;;;;;13.20;12.00;;;5.80;99.90;;;;;;4978556;28;20459;-86
2021/12/11 10:01:44;;;;;;;13.00;11.80;;;5.90;99.90;;;;;;4986449;28;20487;-88
2021/12/11 10:04:16;;;;;;;13.50;11.50;;;6.00;99.90;;;;;;4997117;28;20935;-93
2021/12/11 10:07:02;;;;;;;10.10;9.10;;;6.00;99.90;;;;;;4977636;28;20495;-86
2021/12/11 10:09:35;;;;;;;11.40;10.20;;;6.00;99.90;;;;;;4989169;28;20462;-88
2021/12/11 10:12:06;;;;;;;10.60;9.53;;;6.10;99.90;;;;;;4994681;28;20494;-88
2021/12/11 10:14:39;;;;;;;10.70;9.60;;;6.10;99.90;;;;;;4976540;28;20780;-88
2021/12/11 10:17:09;;;;;;;9.87;8.90;;;6.10;99.90;;;;;;4977935;28;20511;-89
2021/12/11 10:19:37;;;;;;;9.20;8.40;;;6.20;99.90;;;;;;4983132;28;20443;-87
2021/12/11 10:22:12;;;;;;;9.60;8.63;;;6.30;99.90;;;;;;4996339;28;20932;-86
2021/12/11 10:24:39;;;;;;;9.27;8.40;;;6.20;99.90;;;;;;4979921;28;20458;-89
2021/12/11 10:27:09;;;;;;;10.23;9.23;;;6.30;99.90;;;;;;4977144;28;20470;-88
2021/12/11 10:29:40;;;;;;;9.93;9.03;;;6.30;99.90;;;;;;4975208;28;20455;-88
2021/12/11 10:32:10;;;;;;;9.77;8.77;;;6.40;99.90;;;;;;4994069;28;20454;-85
2021/12/11 10:34:38;;;;;;;9.53;8.53;;;6.30;99.90;;;;;;4988034;28;20811;-86
2021/12/11 10:37:09;;;;;;;9.13;8.20;;;6.40;99.90;;;;;;4975932;28;20451;-86
2021/12/11 10:39:40;;;;;;;9.27;8.43;;;6.40;99.90;;;;;;4980830;28;20443;-86
2021/12/11 10:42:08;;;;;;;8.57;7.80;;;6.50;99.90;;;;;;5000107;28;20951;-86
2021/12/11 10:44:41;;;;;;;8.53;7.70;;;6.70;99.90;;;;;;4998865;28;20932;-85
2021/12/11 10:47:11;;;;;;;8.53;7.73;;;6.80;99.90;;;;;;4994943;28;20446;-86
2021/12/11 10:49:39;;;;;;;8.90;7.80;;;6.80;99.90;;;;;;4995486;28;20479;-88
2021/12/11 10:52:09;;;;;;;8.03;7.27;;;6.80;99.90;;;;;;4997570;28;20483;-86
2021/12/11 10:54:38;;;;;;;8.97;8.07;;;6.70;99.90;;;;;;4995815;28;20542;-88
2021/12/11 10:57:05;;;;;;;10.97;8.93;;;6.50;99.90;;;;;;4995338;28;20458;-86
2021/12/11 10:59:39;;;;;;;10.13;8.53;;;6.50;99.90;;;;;;4999342;28;20443;-87
2021/12/11 11:02:10;;;;;;;8.80;8.00;;;6.60;99.90;;;;;;5004756;28;20466;-85
2021/12/11 11:04:40;;;;;;;8.60;7.80;;;6.60;99.90;;;;;;5006696;28;20799;-86
2021/12/11 11:07:09;;;;;;;9.50;8.07;;;6.60;99.90;;;;;;5017006;28;20426;-87
2021/12/11 11:09:36;;;;;;;8.43;7.70;;;6.60;99.90;;;;;;4991342;28;20454;-87
2021/12/11 11:12:07;;;;;;;13.23;8.40;;;6.60;99.90;;;;;;4994581;28;20514;-87
2021/12/11 11:14:34;;;;;;;8.80;7.90;;;6.70;99.90;;;;;;4996445;28;20457;-86
2021/12/11 11:17:05;;;;;;;9.50;8.60;;;6.60;99.90;;;;;;5016834;28;20442;-85
2021/12/11 11:19:36;;;;;;;8.03;7.33;;;6.70;99.90;;;;;;4998832;28;20447;-86
2021/12/11 11:22:08;;;;;;;8.93;8.17;;;6.70;99.90;;;;;;4995285;28;20455;-86
2021/12/11 11:24:37;;;;;;;8.67;7.83;;;6.70;99.90;;;;;;4987175;28;20925;-86
2021/12/11 11:27:05;;;;;;;8.80;7.90;;;6.70;99.90;;;;;;4976206;28;20455;-87
2021/12/11 11:29:33;;;;;;;12.60;9.73;;;6.70;99.90;;;;;;4981898;28;20454;-87
2021/12/11 11:32:04;;;;;;;13.47;9.47;;;6.80;99.90;;;;;;4993759;28;20486;-86
2021/12/11 11:34:39;;;;;;;12.00;10.70;;;6.80;99.90;;;;;;4995851;28;20455;-86
2021/12/11 11:37:07;;;;;;;10.40;8.57;;;6.80;99.90;;;;;;4993381;28;20471;-86
2021/12/11 11:39:34;;;;;;;9.47;8.47;;;6.80;99.90;;;;;;4992656;28;20451;-87
2021/12/11 11:42:06;;;;;;;7.60;6.90;;;6.90;99.90;;;;;;5006489;28;20439;-84
2021/12/11 11:44:34;;;;;;;11.53;8.30;;;7.10;99.90;;;;;;5001997;28;20512;-85
2021/12/11 11:47:03;;;;;;;9.27;8.37;;;7.20;99.90;;;;;;4983134;28;20827;-85
2021/12/11 11:49:30;;;;;;;8.27;7.47;;;7.30;99.90;;;;;;4983103;28;21035;-84
2021/12/11 11:52:05;;;;;;;8.80;8.00;;;7.40;99.90;;;;;;4989124;28;21000;-86
2021/12/11 11:54:33;;;;;;;10.17;9.07;;;7.50;99.90;;;;;;4998061;28;20922;-87
2021/12/11 11:57:04;;;;;;;9.23;8.33;;;7.60;99.90;;;;;;4995837;28;20455;-87
2021/12/11 11:59:31;;;;;;;12.27;10.97;;;7.50;99.90;;;;;;4982205;28;20460;-87
2021/12/11 12:02:03;;;;;;;11.87;10.67;;;7.30;99.90;;;;;;4974628;28;20455;-86
2021/12/11 12:04:31;;;;;;;10.00;8.53;;;7.30;99.90;;;;;;4981191;28;20806;-84
2021/12/11 12:07:03;;;;;;;10.30;9.20;;;7.10;99.90;;;;;;4975878;28;20452;-85
2021/12/11 12:09:32;;;;;;;9.43;8.50;;;6.90;99.90;;;;;;4974381;28;20459;-87
2021/12/11 12:12:01;;;;;;;10.00;8.83;;;6.90;99.90;;;;;;4987998;28;20497;-85
2021/12/11 12:14:34;;;;;;;9.80;9.00;;;6.80;99.90;;;;;;4999475;28;20442;-85
2021/12/11 12:17:02;;;;;;;10.17;9.20;;;6.70;99.90;;;;;;4991211;28;20452;-85
2021/12/11 12:19:29;;;;;;;9.97;8.30;;;6.60;99.90;;;;;;4973686;28;20507;-85
2021/12/11 12:21:59;;;;;;;10.53;9.53;;;6.60;99.90;;;;;;4976482;28;20570;-85
2021/12/11 12:24:31;;;;;;;11.07;9.13;;;6.50;99.90;;;;;;4993328;28;20451;-85
2021/12/11 12:26:58;;;;;;;13.50;9.20;;;6.50;99.90;;;;;;4992632;28;20459;-85
2021/12/11 12:29:24;;;;;;;10.93;9.93;;;6.50;99.90;;;;;;4977057;28;20455;-84
2021/12/11 12:31:56;;;;;;;9.30;8.40;;;6.50;99.90;;;;;;4975608;28;21021;-85
2021/12/11 12:34:25;;;;;;;10.40;8.97;;;6.50;99.90;;;;;;4993969;28;20470;-85
2021/12/11 12:36:52;;;;;;;10.57;9.47;;;6.50;99.90;;;;;;4993541;28;20457;-85
2021/12/11 12:39:22;;;;;;;11.17;10.00;;;6.50;99.90;;;;;;4975326;28;20885;-85
2021/12/11 12:42:03;;;;;;;12.10;9.50;;;6.60;99.90;;;;;;4974479;28;20471;-84
2021/12/11 12:44:31;;;;;;;9.70;8.80;;;6.70;99.90;;;;;;4974529;28;20451;-85
2021/12/11 12:47:01;;;;;;;10.90;9.80;;;6.80;99.90;;;;;;4974641;28;20464;-85
2021/12/11 12:49:31;;;;;;;11.03;9.93;;;6.80;99.90;;;;;;4976657;28;20447;-84
2021/12/11 12:52:08;;;;;;;11.60;10.50;;;6.80;99.90;;;;;;4986036;28;20530;-83
2021/12/11 12:54:36;;;;;;;18.70;12.33;;;6.80;99.90;;;;;;4995050;28;20432;-85
2021/12/11 12:57:12;;;;;;;9.60;8.70;;;6.70;99.90;;;;;;4974847;28;20463;-86
2021/12/11 12:59:42;;;;;;;14.07;10.20;;;6.80;99.90;;;;;;4990430;28;20452;-85
2021/12/11 13:02:12;;;;;;;11.33;10.23;;;6.70;99.90;;;;;;4988659;28;20440;-87
2021/12/11 13:04:43;;;;;;;9.50;8.60;;;6.70;99.90;;;;;;4980901;28;21058;-86
2021/12/11 13:07:13;;;;;;;12.50;11.20;;;6.80;99.90;;;;;;4992980;28;20438;-87